<?xml version="1.0" encoding="UTF-8" standalone="no" ?>
<gpx xmlns="http://www.topografix.com/GPX/1/1" xmlns:xsi="http://www.w3.org/2001/XMLSchema-instance" xsi:schemaLocation="http://www.topografix.com/GPX/1/1 http://www.topografix.com/GPX/1/1/gpx.xsd" version="1.1" creator="VisuGPX - https://www.visugpx.com">
  <metadata>
    <name>BRC Alleyras et col</name>
  </metadata>
  <wpt lat="44.91437" lon="3.66842">
    <ele>664</ele>
    <name><![CDATA[Point de passage 1]]></name>
    <type><![CDATA[GENERIC]]></type>
  </wpt>
  <wpt lat="44.91481" lon="3.66877">
    <ele>663</ele>
    <name><![CDATA[Point de passage 2]]></name>
    <type><![CDATA[GENERIC]]></type>
  </wpt>
  <trk>
    <name><![CDATA[BRC Alleyras et col]]></name>
    <trkseg>
      <trkpt lat="44.91437" lon="3.66842">
        <ele>664</ele>
        <time>2025-09-14T07:12:41.000Z</time>
      </trkpt>
      <trkpt lat="44.91461" lon="3.66851">
        <ele>663</ele>
        <time>2025-09-14T07:13:04.000Z</time>
      </trkpt>
      <trkpt lat="44.91478" lon="3.66873">
        <ele>667</ele>
        <time>2025-09-14T07:13:22.000Z</time>
      </trkpt>
      <trkpt lat="44.91481" lon="3.66904">
        <ele>665</ele>
        <time>2025-09-14T07:13:42.000Z</time>
      </trkpt>
      <trkpt lat="44.9149" lon="3.66933">
        <ele>668</ele>
        <time>2025-09-14T07:14:03.000Z</time>
      </trkpt>
      <trkpt lat="44.91513" lon="3.6694">
        <ele>667</ele>
        <time>2025-09-14T07:14:24.000Z</time>
      </trkpt>
      <trkpt lat="44.91535" lon="3.66935">
        <ele>666</ele>
        <time>2025-09-14T07:14:45.000Z</time>
      </trkpt>
      <trkpt lat="44.91558" lon="3.66931">
        <ele>667</ele>
        <time>2025-09-14T07:15:03.000Z</time>
      </trkpt>
      <trkpt lat="44.9158" lon="3.6693">
        <ele>665</ele>
        <time>2025-09-14T07:15:22.000Z</time>
      </trkpt>
      <trkpt lat="44.91604" lon="3.66926">
        <ele>667</ele>
        <time>2025-09-14T07:15:42.000Z</time>
      </trkpt>
      <trkpt lat="44.91627" lon="3.66923">
        <ele>663</ele>
        <time>2025-09-14T07:16:04.000Z</time>
      </trkpt>
      <trkpt lat="44.9165" lon="3.66919">
        <ele>664</ele>
        <time>2025-09-14T07:16:25.000Z</time>
      </trkpt>
      <trkpt lat="44.91674" lon="3.66919">
        <ele>665</ele>
        <time>2025-09-14T07:17:00.000Z</time>
      </trkpt>
      <trkpt lat="44.91696" lon="3.66925">
        <ele>665</ele>
        <time>2025-09-14T07:17:15.000Z</time>
      </trkpt>
      <trkpt lat="44.91719" lon="3.66934">
        <ele>665</ele>
        <time>2025-09-14T07:17:32.000Z</time>
      </trkpt>
      <trkpt lat="44.91741" lon="3.66946">
        <ele>665</ele>
        <time>2025-09-14T07:17:48.000Z</time>
      </trkpt>
      <trkpt lat="44.91761" lon="3.66964">
        <ele>663</ele>
        <time>2025-09-14T07:18:05.000Z</time>
      </trkpt>
      <trkpt lat="44.91778" lon="3.66986">
        <ele>661</ele>
        <time>2025-09-14T07:18:21.000Z</time>
      </trkpt>
      <trkpt lat="44.91793" lon="3.67009">
        <ele>658</ele>
        <time>2025-09-14T07:18:37.000Z</time>
      </trkpt>
      <trkpt lat="44.91809" lon="3.67032">
        <ele>657</ele>
        <time>2025-09-14T07:18:51.000Z</time>
      </trkpt>
      <trkpt lat="44.91823" lon="3.67058">
        <ele>660</ele>
        <time>2025-09-14T07:21:36.000Z</time>
      </trkpt>
      <trkpt lat="44.91832" lon="3.67089">
        <ele>653</ele>
        <time>2025-09-14T07:22:02.000Z</time>
      </trkpt>
      <trkpt lat="44.91834" lon="3.67121">
        <ele>655</ele>
        <time>2025-09-14T07:22:20.000Z</time>
      </trkpt>
      <trkpt lat="44.9185" lon="3.67144">
        <ele>651</ele>
        <time>2025-09-14T07:22:43.000Z</time>
      </trkpt>
      <trkpt lat="44.9187" lon="3.67162">
        <ele>650</ele>
        <time>2025-09-14T07:24:00.000Z</time>
      </trkpt>
      <trkpt lat="44.91885" lon="3.67186">
        <ele>654</ele>
        <time>2025-09-14T07:24:21.000Z</time>
      </trkpt>
      <trkpt lat="44.91875" lon="3.67215">
        <ele>656</ele>
        <time>2025-09-14T07:24:41.000Z</time>
      </trkpt>
      <trkpt lat="44.91884" lon="3.67245">
        <ele>658</ele>
        <time>2025-09-14T07:25:29.000Z</time>
      </trkpt>
      <trkpt lat="44.91888" lon="3.67276">
        <ele>665</ele>
        <time>2025-09-14T07:25:53.000Z</time>
      </trkpt>
      <trkpt lat="44.91894" lon="3.67308">
        <ele>665</ele>
        <time>2025-09-14T07:26:16.000Z</time>
      </trkpt>
      <trkpt lat="44.91912" lon="3.67326">
        <ele>662</ele>
        <time>2025-09-14T07:26:56.000Z</time>
      </trkpt>
      <trkpt lat="44.91934" lon="3.6734">
        <ele>669</ele>
        <time>2025-09-14T07:27:16.000Z</time>
      </trkpt>
      <trkpt lat="44.91953" lon="3.67358">
        <ele>670</ele>
        <time>2025-09-14T07:27:36.000Z</time>
      </trkpt>
      <trkpt lat="44.91974" lon="3.67372">
        <ele>670</ele>
        <time>2025-09-14T07:28:24.000Z</time>
      </trkpt>
      <trkpt lat="44.91967" lon="3.67402">
        <ele>671</ele>
        <time>2025-09-14T07:31:50.000Z</time>
      </trkpt>
      <trkpt lat="44.91945" lon="3.67408">
        <ele>673</ele>
        <time>2025-09-14T07:32:17.000Z</time>
      </trkpt>
      <trkpt lat="44.91924" lon="3.67394">
        <ele>677</ele>
        <time>2025-09-14T07:32:39.000Z</time>
      </trkpt>
      <trkpt lat="44.91903" lon="3.67381">
        <ele>680</ele>
        <time>2025-09-14T07:32:59.000Z</time>
      </trkpt>
      <trkpt lat="44.91881" lon="3.67379">
        <ele>682</ele>
        <time>2025-09-14T07:33:21.000Z</time>
      </trkpt>
      <trkpt lat="44.91858" lon="3.67376">
        <ele>682</ele>
        <time>2025-09-14T07:33:46.000Z</time>
      </trkpt>
      <trkpt lat="44.91835" lon="3.67375">
        <ele>683</ele>
        <time>2025-09-14T07:34:13.000Z</time>
      </trkpt>
      <trkpt lat="44.91812" lon="3.67383">
        <ele>685</ele>
        <time>2025-09-14T07:34:36.000Z</time>
      </trkpt>
      <trkpt lat="44.91797" lon="3.67406">
        <ele>688</ele>
        <time>2025-09-14T07:35:00.000Z</time>
      </trkpt>
      <trkpt lat="44.91791" lon="3.67437">
        <ele>692</ele>
        <time>2025-09-14T07:35:24.000Z</time>
      </trkpt>
      <trkpt lat="44.91788" lon="3.67469">
        <ele>699</ele>
        <time>2025-09-14T07:35:49.000Z</time>
      </trkpt>
      <trkpt lat="44.91777" lon="3.67499">
        <ele>702</ele>
        <time>2025-09-14T07:36:13.000Z</time>
      </trkpt>
      <trkpt lat="44.91765" lon="3.67526">
        <ele>704</ele>
        <time>2025-09-14T07:36:42.000Z</time>
      </trkpt>
      <trkpt lat="44.91744" lon="3.67539">
        <ele>707</ele>
        <time>2025-09-14T07:37:06.000Z</time>
      </trkpt>
      <trkpt lat="44.91726" lon="3.67559">
        <ele>711</ele>
        <time>2025-09-14T07:37:32.000Z</time>
      </trkpt>
      <trkpt lat="44.91708" lon="3.6758">
        <ele>714</ele>
        <time>2025-09-14T07:37:55.000Z</time>
      </trkpt>
      <trkpt lat="44.91692" lon="3.67602">
        <ele>716</ele>
        <time>2025-09-14T07:38:19.000Z</time>
      </trkpt>
      <trkpt lat="44.91678" lon="3.67628">
        <ele>721</ele>
        <time>2025-09-14T07:38:45.000Z</time>
      </trkpt>
      <trkpt lat="44.91675" lon="3.6766">
        <ele>726</ele>
        <time>2025-09-14T07:39:13.000Z</time>
      </trkpt>
      <trkpt lat="44.91678" lon="3.67692">
        <ele>727</ele>
        <time>2025-09-14T07:39:51.000Z</time>
      </trkpt>
      <trkpt lat="44.91675" lon="3.67724">
        <ele>729</ele>
        <time>2025-09-14T07:40:13.000Z</time>
      </trkpt>
      <trkpt lat="44.91673" lon="3.67758">
        <ele>730</ele>
        <time>2025-09-14T07:40:35.000Z</time>
      </trkpt>
      <trkpt lat="44.91668" lon="3.67789">
        <ele>732</ele>
        <time>2025-09-14T07:42:39.000Z</time>
      </trkpt>
      <trkpt lat="44.91661" lon="3.67819">
        <ele>734</ele>
        <time>2025-09-14T07:43:04.000Z</time>
      </trkpt>
      <trkpt lat="44.91658" lon="3.67852">
        <ele>738</ele>
        <time>2025-09-14T07:43:32.000Z</time>
      </trkpt>
      <trkpt lat="44.91656" lon="3.67885">
        <ele>740</ele>
        <time>2025-09-14T07:44:08.000Z</time>
      </trkpt>
      <trkpt lat="44.91654" lon="3.67917">
        <ele>743</ele>
        <time>2025-09-14T07:44:33.000Z</time>
      </trkpt>
      <trkpt lat="44.91647" lon="3.67947">
        <ele>744</ele>
        <time>2025-09-14T07:45:00.000Z</time>
      </trkpt>
      <trkpt lat="44.91627" lon="3.67964">
        <ele>746</ele>
        <time>2025-09-14T07:45:24.000Z</time>
      </trkpt>
      <trkpt lat="44.91605" lon="3.67971">
        <ele>747</ele>
        <time>2025-09-14T07:45:44.000Z</time>
      </trkpt>
      <trkpt lat="44.91584" lon="3.67983">
        <ele>749</ele>
        <time>2025-09-14T07:46:05.000Z</time>
      </trkpt>
      <trkpt lat="44.91562" lon="3.67992">
        <ele>752</ele>
        <time>2025-09-14T07:46:25.000Z</time>
      </trkpt>
      <trkpt lat="44.91539" lon="3.67995">
        <ele>754</ele>
        <time>2025-09-14T07:51:01.000Z</time>
      </trkpt>
      <trkpt lat="44.9152" lon="3.68012">
        <ele>754</ele>
        <time>2025-09-14T07:53:58.000Z</time>
      </trkpt>
      <trkpt lat="44.91497" lon="3.68017">
        <ele>754</ele>
        <time>2025-09-14T07:54:24.000Z</time>
      </trkpt>
      <trkpt lat="44.91474" lon="3.68026">
        <ele>752</ele>
        <time>2025-09-14T07:54:44.000Z</time>
      </trkpt>
      <trkpt lat="44.91461" lon="3.68054">
        <ele>754</ele>
        <time>2025-09-14T07:55:10.000Z</time>
      </trkpt>
      <trkpt lat="44.91463" lon="3.68086">
        <ele>757</ele>
        <time>2025-09-14T07:55:29.000Z</time>
      </trkpt>
      <trkpt lat="44.91466" lon="3.68118">
        <ele>758</ele>
        <time>2025-09-14T07:56:07.000Z</time>
      </trkpt>
      <trkpt lat="44.91472" lon="3.68149">
        <ele>760</ele>
        <time>2025-09-14T07:56:23.000Z</time>
      </trkpt>
      <trkpt lat="44.91471" lon="3.68181">
        <ele>763</ele>
        <time>2025-09-14T07:56:48.000Z</time>
      </trkpt>
      <trkpt lat="44.91468" lon="3.68213">
        <ele>765</ele>
        <time>2025-09-14T07:57:15.000Z</time>
      </trkpt>
      <trkpt lat="44.91448" lon="3.68231">
        <ele>768</ele>
        <time>2025-09-14T07:57:54.000Z</time>
      </trkpt>
      <trkpt lat="44.91437" lon="3.6826">
        <ele>770</ele>
        <time>2025-09-14T07:58:25.000Z</time>
      </trkpt>
      <trkpt lat="44.91444" lon="3.68291">
        <ele>773</ele>
        <time>2025-09-14T07:59:00.000Z</time>
      </trkpt>
      <trkpt lat="44.91458" lon="3.68316">
        <ele>773</ele>
        <time>2025-09-14T07:59:27.000Z</time>
      </trkpt>
      <trkpt lat="44.91473" lon="3.68341">
        <ele>774</ele>
        <time>2025-09-14T07:59:58.000Z</time>
      </trkpt>
      <trkpt lat="44.91494" lon="3.68355">
        <ele>779</ele>
        <time>2025-09-14T08:00:31.000Z</time>
      </trkpt>
      <trkpt lat="44.91515" lon="3.6837">
        <ele>783</ele>
        <time>2025-09-14T08:00:57.000Z</time>
      </trkpt>
      <trkpt lat="44.91507" lon="3.68402">
        <ele>790</ele>
        <time>2025-09-14T08:01:27.000Z</time>
      </trkpt>
      <trkpt lat="44.9149" lon="3.68422">
        <ele>793</ele>
        <time>2025-09-14T08:01:51.000Z</time>
      </trkpt>
      <trkpt lat="44.9147" lon="3.68438">
        <ele>794</ele>
        <time>2025-09-14T08:02:18.000Z</time>
      </trkpt>
      <trkpt lat="44.91451" lon="3.68455">
        <ele>795</ele>
        <time>2025-09-14T08:02:45.000Z</time>
      </trkpt>
      <trkpt lat="44.91441" lon="3.68486">
        <ele>794</ele>
        <time>2025-09-14T08:05:18.000Z</time>
      </trkpt>
      <trkpt lat="44.91434" lon="3.68517">
        <ele>794</ele>
        <time>2025-09-14T08:05:42.000Z</time>
      </trkpt>
      <trkpt lat="44.91424" lon="3.68545">
        <ele>795</ele>
        <time>2025-09-14T08:06:01.000Z</time>
      </trkpt>
      <trkpt lat="44.91423" lon="3.68578">
        <ele>794</ele>
        <time>2025-09-14T08:06:26.000Z</time>
      </trkpt>
      <trkpt lat="44.9143" lon="3.68609">
        <ele>799</ele>
        <time>2025-09-14T08:06:56.000Z</time>
      </trkpt>
      <trkpt lat="44.91412" lon="3.68589">
        <ele>800</ele>
        <time>2025-09-14T08:07:24.000Z</time>
      </trkpt>
      <trkpt lat="44.91389" lon="3.68582">
        <ele>795</ele>
        <time>2025-09-14T08:07:46.000Z</time>
      </trkpt>
      <trkpt lat="44.91374" lon="3.68559">
        <ele>791</ele>
        <time>2025-09-14T08:08:07.000Z</time>
      </trkpt>
      <trkpt lat="44.91359" lon="3.68534">
        <ele>786</ele>
        <time>2025-09-14T08:08:38.000Z</time>
      </trkpt>
      <trkpt lat="44.9134" lon="3.68515">
        <ele>781</ele>
        <time>2025-09-14T08:09:03.000Z</time>
      </trkpt>
      <trkpt lat="44.91321" lon="3.68495">
        <ele>779</ele>
        <time>2025-09-14T08:09:23.000Z</time>
      </trkpt>
      <trkpt lat="44.91304" lon="3.68472">
        <ele>777</ele>
        <time>2025-09-14T08:09:47.000Z</time>
      </trkpt>
      <trkpt lat="44.9128" lon="3.68464">
        <ele>772</ele>
        <time>2025-09-14T08:10:15.000Z</time>
      </trkpt>
      <trkpt lat="44.91258" lon="3.68474">
        <ele>767</ele>
        <time>2025-09-14T08:10:42.000Z</time>
      </trkpt>
      <trkpt lat="44.91239" lon="3.68492">
        <ele>766</ele>
        <time>2025-09-14T08:11:12.000Z</time>
      </trkpt>
      <trkpt lat="44.91222" lon="3.68513">
        <ele>764</ele>
        <time>2025-09-14T08:11:38.000Z</time>
      </trkpt>
      <trkpt lat="44.91202" lon="3.6853">
        <ele>761</ele>
        <time>2025-09-14T08:12:09.000Z</time>
      </trkpt>
      <trkpt lat="44.91183" lon="3.68551">
        <ele>758</ele>
        <time>2025-09-14T08:12:34.000Z</time>
      </trkpt>
      <trkpt lat="44.91161" lon="3.68558">
        <ele>753</ele>
        <time>2025-09-14T08:13:00.000Z</time>
      </trkpt>
      <trkpt lat="44.9114" lon="3.68573">
        <ele>748</ele>
        <time>2025-09-14T08:13:30.000Z</time>
      </trkpt>
      <trkpt lat="44.91122" lon="3.68594">
        <ele>744</ele>
        <time>2025-09-14T08:13:56.000Z</time>
      </trkpt>
      <trkpt lat="44.91101" lon="3.68612">
        <ele>745</ele>
        <time>2025-09-14T08:14:15.000Z</time>
      </trkpt>
      <trkpt lat="44.91082" lon="3.68634">
        <ele>738</ele>
        <time>2025-09-14T08:14:54.000Z</time>
      </trkpt>
      <trkpt lat="44.91066" lon="3.68656">
        <ele>737</ele>
        <time>2025-09-14T08:15:20.000Z</time>
      </trkpt>
      <trkpt lat="44.91051" lon="3.68681">
        <ele>735</ele>
        <time>2025-09-14T08:15:44.000Z</time>
      </trkpt>
      <trkpt lat="44.91036" lon="3.68705">
        <ele>730</ele>
        <time>2025-09-14T08:16:10.000Z</time>
      </trkpt>
      <trkpt lat="44.91022" lon="3.68732">
        <ele>727</ele>
        <time>2025-09-14T08:16:36.000Z</time>
      </trkpt>
      <trkpt lat="44.91005" lon="3.68755">
        <ele>722</ele>
        <time>2025-09-14T08:17:01.000Z</time>
      </trkpt>
      <trkpt lat="44.90993" lon="3.68783">
        <ele>716</ele>
        <time>2025-09-14T08:17:27.000Z</time>
      </trkpt>
      <trkpt lat="44.90992" lon="3.68818">
        <ele>711</ele>
        <time>2025-09-14T08:18:18.000Z</time>
      </trkpt>
      <trkpt lat="44.90996" lon="3.68852">
        <ele>711</ele>
        <time>2025-09-14T08:18:52.000Z</time>
      </trkpt>
      <trkpt lat="44.91001" lon="3.68884">
        <ele>709</ele>
        <time>2025-09-14T08:19:31.000Z</time>
      </trkpt>
      <trkpt lat="44.91004" lon="3.68918">
        <ele>710</ele>
        <time>2025-09-14T08:19:54.000Z</time>
      </trkpt>
      <trkpt lat="44.90981" lon="3.68909">
        <ele>707</ele>
        <time>2025-09-14T08:25:00.000Z</time>
      </trkpt>
      <trkpt lat="44.90959" lon="3.68903">
        <ele>706</ele>
        <time>2025-09-14T08:25:29.000Z</time>
      </trkpt>
      <trkpt lat="44.90959" lon="3.6887">
        <ele>703</ele>
        <time>2025-09-14T08:25:49.000Z</time>
      </trkpt>
      <trkpt lat="44.90948" lon="3.68843">
        <ele>704</ele>
        <time>2025-09-14T08:27:09.000Z</time>
      </trkpt>
      <trkpt lat="44.90926" lon="3.68829">
        <ele>704</ele>
        <time>2025-09-14T08:27:28.000Z</time>
      </trkpt>
      <trkpt lat="44.90908" lon="3.68807">
        <ele>703</ele>
        <time>2025-09-14T08:27:50.000Z</time>
      </trkpt>
      <trkpt lat="44.90886" lon="3.68794">
        <ele>707</ele>
        <time>2025-09-14T08:28:12.000Z</time>
      </trkpt>
      <trkpt lat="44.90883" lon="3.68762">
        <ele>710</ele>
        <time>2025-09-14T08:28:33.000Z</time>
      </trkpt>
      <trkpt lat="44.90882" lon="3.6873">
        <ele>713</ele>
        <time>2025-09-14T08:28:55.000Z</time>
      </trkpt>
      <trkpt lat="44.90885" lon="3.68698">
        <ele>713</ele>
        <time>2025-09-14T08:29:16.000Z</time>
      </trkpt>
      <trkpt lat="44.9088" lon="3.68666">
        <ele>716</ele>
        <time>2025-09-14T08:29:48.000Z</time>
      </trkpt>
      <trkpt lat="44.90884" lon="3.68634">
        <ele>720</ele>
        <time>2025-09-14T08:30:16.000Z</time>
      </trkpt>
      <trkpt lat="44.90875" lon="3.68604">
        <ele>724</ele>
        <time>2025-09-14T08:30:55.000Z</time>
      </trkpt>
      <trkpt lat="44.90862" lon="3.68578">
        <ele>731</ele>
        <time>2025-09-14T08:31:29.000Z</time>
      </trkpt>
      <trkpt lat="44.90848" lon="3.68553">
        <ele>736</ele>
        <time>2025-09-14T08:31:55.000Z</time>
      </trkpt>
      <trkpt lat="44.9084" lon="3.68522">
        <ele>741</ele>
        <time>2025-09-14T08:32:21.000Z</time>
      </trkpt>
      <trkpt lat="44.90833" lon="3.68492">
        <ele>743</ele>
        <time>2025-09-14T08:32:44.000Z</time>
      </trkpt>
      <trkpt lat="44.90826" lon="3.68461">
        <ele>746</ele>
        <time>2025-09-14T08:33:12.000Z</time>
      </trkpt>
      <trkpt lat="44.90822" lon="3.6843">
        <ele>749</ele>
        <time>2025-09-14T08:33:39.000Z</time>
      </trkpt>
      <trkpt lat="44.90825" lon="3.68397">
        <ele>751</ele>
        <time>2025-09-14T08:34:00.000Z</time>
      </trkpt>
      <trkpt lat="44.90802" lon="3.68393">
        <ele>756</ele>
        <time>2025-09-14T08:34:34.000Z</time>
      </trkpt>
      <trkpt lat="44.90782" lon="3.68412">
        <ele>759</ele>
        <time>2025-09-14T08:34:59.000Z</time>
      </trkpt>
      <trkpt lat="44.90766" lon="3.68435">
        <ele>762</ele>
        <time>2025-09-14T08:35:38.000Z</time>
      </trkpt>
      <trkpt lat="44.90745" lon="3.68422">
        <ele>762</ele>
        <time>2025-09-14T08:39:43.000Z</time>
      </trkpt>
      <trkpt lat="44.90722" lon="3.68423">
        <ele>763</ele>
        <time>2025-09-14T08:40:01.000Z</time>
      </trkpt>
      <trkpt lat="44.90699" lon="3.68426">
        <ele>766</ele>
        <time>2025-09-14T08:40:21.000Z</time>
      </trkpt>
      <trkpt lat="44.90677" lon="3.68427">
        <ele>767</ele>
        <time>2025-09-14T08:40:40.000Z</time>
      </trkpt>
      <trkpt lat="44.90653" lon="3.6843">
        <ele>768</ele>
        <time>2025-09-14T08:40:58.000Z</time>
      </trkpt>
      <trkpt lat="44.9063" lon="3.6843">
        <ele>770</ele>
        <time>2025-09-14T08:41:18.000Z</time>
      </trkpt>
      <trkpt lat="44.90607" lon="3.68433">
        <ele>771</ele>
        <time>2025-09-14T08:41:38.000Z</time>
      </trkpt>
      <trkpt lat="44.90584" lon="3.68435">
        <ele>772</ele>
        <time>2025-09-14T08:41:58.000Z</time>
      </trkpt>
      <trkpt lat="44.90561" lon="3.68436">
        <ele>775</ele>
        <time>2025-09-14T08:42:16.000Z</time>
      </trkpt>
      <trkpt lat="44.9056" lon="3.68468">
        <ele>775</ele>
        <time>2025-09-14T08:42:35.000Z</time>
      </trkpt>
      <trkpt lat="44.90559" lon="3.685">
        <ele>775</ele>
        <time>2025-09-14T08:42:53.000Z</time>
      </trkpt>
      <trkpt lat="44.90556" lon="3.68532">
        <ele>774</ele>
        <time>2025-09-14T08:43:12.000Z</time>
      </trkpt>
      <trkpt lat="44.90552" lon="3.68564">
        <ele>775</ele>
        <time>2025-09-14T08:43:31.000Z</time>
      </trkpt>
      <trkpt lat="44.9055" lon="3.68596">
        <ele>774</ele>
        <time>2025-09-14T08:43:50.000Z</time>
      </trkpt>
      <trkpt lat="44.90552" lon="3.68629">
        <ele>774</ele>
        <time>2025-09-14T08:44:10.000Z</time>
      </trkpt>
      <trkpt lat="44.90557" lon="3.6866">
        <ele>774</ele>
        <time>2025-09-14T08:44:30.000Z</time>
      </trkpt>
      <trkpt lat="44.90563" lon="3.68691">
        <ele>775</ele>
        <time>2025-09-14T08:44:50.000Z</time>
      </trkpt>
      <trkpt lat="44.90567" lon="3.68724">
        <ele>776</ele>
        <time>2025-09-14T08:45:12.000Z</time>
      </trkpt>
      <trkpt lat="44.90572" lon="3.68756">
        <ele>777</ele>
        <time>2025-09-14T08:45:31.000Z</time>
      </trkpt>
      <trkpt lat="44.90579" lon="3.68786">
        <ele>777</ele>
        <time>2025-09-14T08:45:52.000Z</time>
      </trkpt>
      <trkpt lat="44.90583" lon="3.68818">
        <ele>778</ele>
        <time>2025-09-14T08:46:20.000Z</time>
      </trkpt>
      <trkpt lat="44.90588" lon="3.6885">
        <ele>780</ele>
        <time>2025-09-14T08:46:42.000Z</time>
      </trkpt>
      <trkpt lat="44.90596" lon="3.6888">
        <ele>781</ele>
        <time>2025-09-14T08:47:02.000Z</time>
      </trkpt>
      <trkpt lat="44.906" lon="3.68912">
        <ele>780</ele>
        <time>2025-09-14T08:48:54.000Z</time>
      </trkpt>
      <trkpt lat="44.90592" lon="3.68943">
        <ele>783</ele>
        <time>2025-09-14T08:49:17.000Z</time>
      </trkpt>
      <trkpt lat="44.90584" lon="3.68974">
        <ele>778</ele>
        <time>2025-09-14T08:49:39.000Z</time>
      </trkpt>
      <trkpt lat="44.90576" lon="3.69005">
        <ele>779</ele>
        <time>2025-09-14T08:49:58.000Z</time>
      </trkpt>
      <trkpt lat="44.90567" lon="3.69034">
        <ele>781</ele>
        <time>2025-09-14T08:50:20.000Z</time>
      </trkpt>
      <trkpt lat="44.90567" lon="3.69067">
        <ele>778</ele>
        <time>2025-09-14T08:50:41.000Z</time>
      </trkpt>
      <trkpt lat="44.90571" lon="3.69098">
        <ele>776</ele>
        <time>2025-09-14T08:51:01.000Z</time>
      </trkpt>
      <trkpt lat="44.9058" lon="3.69128">
        <ele>776</ele>
        <time>2025-09-14T08:51:20.000Z</time>
      </trkpt>
      <trkpt lat="44.90603" lon="3.69135">
        <ele>778</ele>
        <time>2025-09-14T08:51:35.000Z</time>
      </trkpt>
      <trkpt lat="44.90621" lon="3.69116">
        <ele>781</ele>
        <time>2025-09-14T08:52:25.000Z</time>
      </trkpt>
      <trkpt lat="44.90644" lon="3.69115">
        <ele>781</ele>
        <time>2025-09-14T08:52:55.000Z</time>
      </trkpt>
      <trkpt lat="44.90664" lon="3.69129">
        <ele>786</ele>
        <time>2025-09-14T08:53:19.000Z</time>
      </trkpt>
      <trkpt lat="44.90683" lon="3.69148">
        <ele>791</ele>
        <time>2025-09-14T08:53:44.000Z</time>
      </trkpt>
      <trkpt lat="44.90697" lon="3.69174">
        <ele>793</ele>
        <time>2025-09-14T08:54:06.000Z</time>
      </trkpt>
      <trkpt lat="44.90708" lon="3.69202">
        <ele>793</ele>
        <time>2025-09-14T08:54:33.000Z</time>
      </trkpt>
      <trkpt lat="44.90719" lon="3.69231">
        <ele>791</ele>
        <time>2025-09-14T08:54:56.000Z</time>
      </trkpt>
      <trkpt lat="44.90732" lon="3.69258">
        <ele>792</ele>
        <time>2025-09-14T08:55:16.000Z</time>
      </trkpt>
      <trkpt lat="44.90742" lon="3.69287">
        <ele>792</ele>
        <time>2025-09-14T08:55:38.000Z</time>
      </trkpt>
      <trkpt lat="44.90751" lon="3.69317">
        <ele>795</ele>
        <time>2025-09-14T08:56:28.000Z</time>
      </trkpt>
      <trkpt lat="44.90754" lon="3.69348">
        <ele>795</ele>
        <time>2025-09-14T08:57:35.000Z</time>
      </trkpt>
      <trkpt lat="44.90735" lon="3.69366">
        <ele>800</ele>
        <time>2025-09-14T08:58:07.000Z</time>
      </trkpt>
      <trkpt lat="44.90714" lon="3.69383">
        <ele>804</ele>
        <time>2025-09-14T08:58:44.000Z</time>
      </trkpt>
      <trkpt lat="44.907" lon="3.69409">
        <ele>811</ele>
        <time>2025-09-14T08:59:21.000Z</time>
      </trkpt>
      <trkpt lat="44.90705" lon="3.6944">
        <ele>819</ele>
        <time>2025-09-14T09:00:01.000Z</time>
      </trkpt>
      <trkpt lat="44.9072" lon="3.69464">
        <ele>822</ele>
        <time>2025-09-14T09:00:31.000Z</time>
      </trkpt>
      <trkpt lat="44.90727" lon="3.69494">
        <ele>825</ele>
        <time>2025-09-14T09:00:57.000Z</time>
      </trkpt>
      <trkpt lat="44.9073" lon="3.69527">
        <ele>831</ele>
        <time>2025-09-14T09:01:21.000Z</time>
      </trkpt>
      <trkpt lat="44.90727" lon="3.69559">
        <ele>831</ele>
        <time>2025-09-14T09:01:48.000Z</time>
      </trkpt>
      <trkpt lat="44.90712" lon="3.69584">
        <ele>836</ele>
        <time>2025-09-14T09:02:19.000Z</time>
      </trkpt>
      <trkpt lat="44.9069" lon="3.69598">
        <ele>840</ele>
        <time>2025-09-14T09:02:46.000Z</time>
      </trkpt>
      <trkpt lat="44.90671" lon="3.69615">
        <ele>848</ele>
        <time>2025-09-14T09:03:18.000Z</time>
      </trkpt>
      <trkpt lat="44.90657" lon="3.69642">
        <ele>850</ele>
        <time>2025-09-14T09:03:43.000Z</time>
      </trkpt>
      <trkpt lat="44.90638" lon="3.69661">
        <ele>852</ele>
        <time>2025-09-14T09:04:13.000Z</time>
      </trkpt>
      <trkpt lat="44.90615" lon="3.69661">
        <ele>860</ele>
        <time>2025-09-14T09:13:28.000Z</time>
      </trkpt>
      <trkpt lat="44.90606" lon="3.6969">
        <ele>867</ele>
        <time>2025-09-14T09:14:23.000Z</time>
      </trkpt>
      <trkpt lat="44.90608" lon="3.69723">
        <ele>868</ele>
        <time>2025-09-14T09:14:58.000Z</time>
      </trkpt>
      <trkpt lat="44.9062" lon="3.6975">
        <ele>873</ele>
        <time>2025-09-14T09:15:42.000Z</time>
      </trkpt>
      <trkpt lat="44.9064" lon="3.69768">
        <ele>875</ele>
        <time>2025-09-14T09:16:13.000Z</time>
      </trkpt>
      <trkpt lat="44.90659" lon="3.69784">
        <ele>880</ele>
        <time>2025-09-14T09:16:43.000Z</time>
      </trkpt>
      <trkpt lat="44.90673" lon="3.6981">
        <ele>884</ele>
        <time>2025-09-14T09:17:13.000Z</time>
      </trkpt>
      <trkpt lat="44.90694" lon="3.69827">
        <ele>881</ele>
        <time>2025-09-14T09:17:47.000Z</time>
      </trkpt>
      <trkpt lat="44.90706" lon="3.69855">
        <ele>879</ele>
        <time>2025-09-14T09:18:06.000Z</time>
      </trkpt>
      <trkpt lat="44.90707" lon="3.69888">
        <ele>879</ele>
        <time>2025-09-14T09:18:27.000Z</time>
      </trkpt>
      <trkpt lat="44.90701" lon="3.6992">
        <ele>878</ele>
        <time>2025-09-14T09:18:48.000Z</time>
      </trkpt>
      <trkpt lat="44.90695" lon="3.69951">
        <ele>876</ele>
        <time>2025-09-14T09:19:09.000Z</time>
      </trkpt>
      <trkpt lat="44.90682" lon="3.69978">
        <ele>875</ele>
        <time>2025-09-14T09:19:34.000Z</time>
      </trkpt>
      <trkpt lat="44.90662" lon="3.69999">
        <ele>870</ele>
        <time>2025-09-14T09:21:37.000Z</time>
      </trkpt>
      <trkpt lat="44.90651" lon="3.70027">
        <ele>868</ele>
        <time>2025-09-14T09:22:08.000Z</time>
      </trkpt>
      <trkpt lat="44.90633" lon="3.70047">
        <ele>867</ele>
        <time>2025-09-14T09:22:28.000Z</time>
      </trkpt>
      <trkpt lat="44.90622" lon="3.70075">
        <ele>869</ele>
        <time>2025-09-14T09:22:53.000Z</time>
      </trkpt>
      <trkpt lat="44.90606" lon="3.701">
        <ele>868</ele>
        <time>2025-09-14T09:23:20.000Z</time>
      </trkpt>
      <trkpt lat="44.90621" lon="3.70126">
        <ele>872</ele>
        <time>2025-09-14T09:23:50.000Z</time>
      </trkpt>
      <trkpt lat="44.90632" lon="3.70155">
        <ele>873</ele>
        <time>2025-09-14T09:24:09.000Z</time>
      </trkpt>
      <trkpt lat="44.90642" lon="3.70184">
        <ele>873</ele>
        <time>2025-09-14T09:24:31.000Z</time>
      </trkpt>
      <trkpt lat="44.90647" lon="3.70216">
        <ele>874</ele>
        <time>2025-09-14T09:24:56.000Z</time>
      </trkpt>
      <trkpt lat="44.90645" lon="3.70248">
        <ele>874</ele>
        <time>2025-09-14T09:25:23.000Z</time>
      </trkpt>
      <trkpt lat="44.90629" lon="3.70271">
        <ele>876</ele>
        <time>2025-09-14T09:25:45.000Z</time>
      </trkpt>
      <trkpt lat="44.90617" lon="3.703">
        <ele>877</ele>
        <time>2025-09-14T09:26:10.000Z</time>
      </trkpt>
      <trkpt lat="44.90608" lon="3.70332">
        <ele>880</ele>
        <time>2025-09-14T09:26:35.000Z</time>
      </trkpt>
      <trkpt lat="44.90612" lon="3.70366">
        <ele>881</ele>
        <time>2025-09-14T09:27:00.000Z</time>
      </trkpt>
      <trkpt lat="44.90616" lon="3.70403">
        <ele>884</ele>
        <time>2025-09-14T09:27:41.000Z</time>
      </trkpt>
      <trkpt lat="44.90636" lon="3.70423">
        <ele>884</ele>
        <time>2025-09-14T09:28:05.000Z</time>
      </trkpt>
      <trkpt lat="44.9064" lon="3.70455">
        <ele>889</ele>
        <time>2025-09-14T09:28:54.000Z</time>
      </trkpt>
      <trkpt lat="44.90629" lon="3.70483">
        <ele>896</ele>
        <time>2025-09-14T09:29:32.000Z</time>
      </trkpt>
      <trkpt lat="44.90615" lon="3.70507">
        <ele>901</ele>
        <time>2025-09-14T09:29:59.000Z</time>
      </trkpt>
      <trkpt lat="44.90614" lon="3.7054">
        <ele>900</ele>
        <time>2025-09-14T09:30:30.000Z</time>
      </trkpt>
      <trkpt lat="44.90605" lon="3.7057">
        <ele>898</ele>
        <time>2025-09-14T09:31:34.000Z</time>
      </trkpt>
      <trkpt lat="44.90585" lon="3.70586">
        <ele>899</ele>
        <time>2025-09-14T09:36:18.000Z</time>
      </trkpt>
      <trkpt lat="44.90569" lon="3.70608">
        <ele>899</ele>
        <time>2025-09-14T09:36:43.000Z</time>
      </trkpt>
      <trkpt lat="44.9055" lon="3.70625">
        <ele>899</ele>
        <time>2025-09-14T09:37:05.000Z</time>
      </trkpt>
      <trkpt lat="44.90534" lon="3.70648">
        <ele>901</ele>
        <time>2025-09-14T09:37:51.000Z</time>
      </trkpt>
      <trkpt lat="44.90523" lon="3.70677">
        <ele>901</ele>
        <time>2025-09-14T09:38:12.000Z</time>
      </trkpt>
      <trkpt lat="44.90522" lon="3.7071">
        <ele>900</ele>
        <time>2025-09-14T09:38:35.000Z</time>
      </trkpt>
      <trkpt lat="44.90523" lon="3.70742">
        <ele>897</ele>
        <time>2025-09-14T09:38:57.000Z</time>
      </trkpt>
      <trkpt lat="44.9051" lon="3.70769">
        <ele>899</ele>
        <time>2025-09-14T09:39:18.000Z</time>
      </trkpt>
      <trkpt lat="44.90498" lon="3.70796">
        <ele>902</ele>
        <time>2025-09-14T09:39:39.000Z</time>
      </trkpt>
      <trkpt lat="44.90488" lon="3.70824">
        <ele>904</ele>
        <time>2025-09-14T09:39:56.000Z</time>
      </trkpt>
      <trkpt lat="44.90475" lon="3.70851">
        <ele>905</ele>
        <time>2025-09-14T09:40:15.000Z</time>
      </trkpt>
      <trkpt lat="44.90467" lon="3.70883">
        <ele>902</ele>
        <time>2025-09-14T09:40:36.000Z</time>
      </trkpt>
      <trkpt lat="44.90447" lon="3.709">
        <ele>905</ele>
        <time>2025-09-14T09:41:03.000Z</time>
      </trkpt>
      <trkpt lat="44.9043" lon="3.70923">
        <ele>906</ele>
        <time>2025-09-14T09:41:28.000Z</time>
      </trkpt>
      <trkpt lat="44.90412" lon="3.70945">
        <ele>909</ele>
        <time>2025-09-14T09:41:48.000Z</time>
      </trkpt>
      <trkpt lat="44.90395" lon="3.70966">
        <ele>907</ele>
        <time>2025-09-14T09:42:12.000Z</time>
      </trkpt>
      <trkpt lat="44.90372" lon="3.7097">
        <ele>908</ele>
        <time>2025-09-14T09:42:41.000Z</time>
      </trkpt>
      <trkpt lat="44.9035" lon="3.70982">
        <ele>911</ele>
        <time>2025-09-14T09:43:06.000Z</time>
      </trkpt>
      <trkpt lat="44.90331" lon="3.70998">
        <ele>912</ele>
        <time>2025-09-14T09:43:28.000Z</time>
      </trkpt>
      <trkpt lat="44.90311" lon="3.71014">
        <ele>914</ele>
        <time>2025-09-14T09:43:53.000Z</time>
      </trkpt>
      <trkpt lat="44.90289" lon="3.71024">
        <ele>912</ele>
        <time>2025-09-14T09:44:29.000Z</time>
      </trkpt>
      <trkpt lat="44.90267" lon="3.71016">
        <ele>919</ele>
        <time>2025-09-14T09:45:10.000Z</time>
      </trkpt>
      <trkpt lat="44.90245" lon="3.71005">
        <ele>926</ele>
        <time>2025-09-14T09:45:40.000Z</time>
      </trkpt>
      <trkpt lat="44.90223" lon="3.70999">
        <ele>933</ele>
        <time>2025-09-14T09:46:10.000Z</time>
      </trkpt>
      <trkpt lat="44.90201" lon="3.7101">
        <ele>932</ele>
        <time>2025-09-14T09:46:40.000Z</time>
      </trkpt>
      <trkpt lat="44.9018" lon="3.71021">
        <ele>931</ele>
        <time>2025-09-14T09:47:10.000Z</time>
      </trkpt>
      <trkpt lat="44.9016" lon="3.71037">
        <ele>933</ele>
        <time>2025-09-14T09:47:30.000Z</time>
      </trkpt>
      <trkpt lat="44.90143" lon="3.71058">
        <ele>932</ele>
        <time>2025-09-14T09:47:54.000Z</time>
      </trkpt>
      <trkpt lat="44.90124" lon="3.71077">
        <ele>928</ele>
        <time>2025-09-14T09:48:27.000Z</time>
      </trkpt>
      <trkpt lat="44.90101" lon="3.71075">
        <ele>932</ele>
        <time>2025-09-14T09:49:06.000Z</time>
      </trkpt>
      <trkpt lat="44.90078" lon="3.71075">
        <ele>935</ele>
        <time>2025-09-14T09:49:31.000Z</time>
      </trkpt>
      <trkpt lat="44.90056" lon="3.71087">
        <ele>936</ele>
        <time>2025-09-14T09:50:00.000Z</time>
      </trkpt>
      <trkpt lat="44.90034" lon="3.71089">
        <ele>937</ele>
        <time>2025-09-14T09:50:26.000Z</time>
      </trkpt>
      <trkpt lat="44.90012" lon="3.71082">
        <ele>941</ele>
        <time>2025-09-14T09:51:45.000Z</time>
      </trkpt>
      <trkpt lat="44.89991" lon="3.71065">
        <ele>949</ele>
        <time>2025-09-14T09:52:23.000Z</time>
      </trkpt>
      <trkpt lat="44.89969" lon="3.71052">
        <ele>955</ele>
        <time>2025-09-14T09:52:51.000Z</time>
      </trkpt>
      <trkpt lat="44.89947" lon="3.71061">
        <ele>957</ele>
        <time>2025-09-14T09:53:20.000Z</time>
      </trkpt>
      <trkpt lat="44.89923" lon="3.71064">
        <ele>960</ele>
        <time>2025-09-14T09:53:49.000Z</time>
      </trkpt>
      <trkpt lat="44.899" lon="3.71063">
        <ele>965</ele>
        <time>2025-09-14T09:54:19.000Z</time>
      </trkpt>
      <trkpt lat="44.89878" lon="3.71058">
        <ele>970</ele>
        <time>2025-09-14T09:54:44.000Z</time>
      </trkpt>
      <trkpt lat="44.89855" lon="3.71049">
        <ele>976</ele>
        <time>2025-09-14T09:55:14.000Z</time>
      </trkpt>
      <trkpt lat="44.89868" lon="3.71023">
        <ele>981</ele>
        <time>2025-09-14T09:55:39.000Z</time>
      </trkpt>
      <trkpt lat="44.89847" lon="3.71007">
        <ele>986</ele>
        <time>2025-09-14T09:56:22.000Z</time>
      </trkpt>
      <trkpt lat="44.89824" lon="3.71009">
        <ele>990</ele>
        <time>2025-09-14T10:04:57.000Z</time>
      </trkpt>
      <trkpt lat="44.89812" lon="3.71037">
        <ele>992</ele>
        <time>2025-09-14T10:05:24.000Z</time>
      </trkpt>
      <trkpt lat="44.89791" lon="3.7105">
        <ele>991</ele>
        <time>2025-09-14T10:05:47.000Z</time>
      </trkpt>
      <trkpt lat="44.89771" lon="3.71066">
        <ele>993</ele>
        <time>2025-09-14T10:06:09.000Z</time>
      </trkpt>
      <trkpt lat="44.89753" lon="3.71088">
        <ele>992</ele>
        <time>2025-09-14T10:06:30.000Z</time>
      </trkpt>
      <trkpt lat="44.89733" lon="3.71104">
        <ele>993</ele>
        <time>2025-09-14T10:06:54.000Z</time>
      </trkpt>
      <trkpt lat="44.89717" lon="3.71127">
        <ele>995</ele>
        <time>2025-09-14T10:07:17.000Z</time>
      </trkpt>
      <trkpt lat="44.89699" lon="3.71149">
        <ele>997</ele>
        <time>2025-09-14T10:07:41.000Z</time>
      </trkpt>
      <trkpt lat="44.89683" lon="3.71172">
        <ele>998</ele>
        <time>2025-09-14T10:08:03.000Z</time>
      </trkpt>
      <trkpt lat="44.89666" lon="3.71195">
        <ele>1000</ele>
        <time>2025-09-14T10:08:26.000Z</time>
      </trkpt>
      <trkpt lat="44.89648" lon="3.71214">
        <ele>1002</ele>
        <time>2025-09-14T10:08:52.000Z</time>
      </trkpt>
      <trkpt lat="44.8963" lon="3.71236">
        <ele>1003</ele>
        <time>2025-09-14T10:09:41.000Z</time>
      </trkpt>
      <trkpt lat="44.89612" lon="3.71254">
        <ele>1004</ele>
        <time>2025-09-14T10:11:10.000Z</time>
      </trkpt>
      <trkpt lat="44.89593" lon="3.71272">
        <ele>1005</ele>
        <time>2025-09-14T10:11:32.000Z</time>
      </trkpt>
      <trkpt lat="44.89572" lon="3.71287">
        <ele>1005</ele>
        <time>2025-09-14T10:11:56.000Z</time>
      </trkpt>
      <trkpt lat="44.89549" lon="3.71296">
        <ele>1003</ele>
        <time>2025-09-14T10:12:17.000Z</time>
      </trkpt>
      <trkpt lat="44.89527" lon="3.71304">
        <ele>1001</ele>
        <time>2025-09-14T10:12:39.000Z</time>
      </trkpt>
      <trkpt lat="44.89505" lon="3.71307">
        <ele>1003</ele>
        <time>2025-09-14T10:13:06.000Z</time>
      </trkpt>
      <trkpt lat="44.89486" lon="3.71325">
        <ele>1006</ele>
        <time>2025-09-14T10:14:07.000Z</time>
      </trkpt>
      <trkpt lat="44.89474" lon="3.71352">
        <ele>1005</ele>
        <time>2025-09-14T10:15:54.000Z</time>
      </trkpt>
      <trkpt lat="44.89462" lon="3.71381">
        <ele>1005</ele>
        <time>2025-09-14T10:16:16.000Z</time>
      </trkpt>
      <trkpt lat="44.89452" lon="3.7141">
        <ele>1005</ele>
        <time>2025-09-14T10:16:37.000Z</time>
      </trkpt>
      <trkpt lat="44.89439" lon="3.71436">
        <ele>1005</ele>
        <time>2025-09-14T10:17:08.000Z</time>
      </trkpt>
      <trkpt lat="44.89454" lon="3.71412">
        <ele>1012</ele>
        <time>2025-09-14T10:51:07.000Z</time>
      </trkpt>
      <trkpt lat="44.8947" lon="3.71389">
        <ele>1007</ele>
        <time>2025-09-14T10:51:40.000Z</time>
      </trkpt>
      <trkpt lat="44.89481" lon="3.7136">
        <ele>1006</ele>
        <time>2025-09-14T10:52:02.000Z</time>
      </trkpt>
      <trkpt lat="44.89495" lon="3.71336">
        <ele>1007</ele>
        <time>2025-09-14T10:52:42.000Z</time>
      </trkpt>
      <trkpt lat="44.89502" lon="3.71303">
        <ele>1006</ele>
        <time>2025-09-14T11:26:53.000Z</time>
      </trkpt>
      <trkpt lat="44.89485" lon="3.71281">
        <ele>1008</ele>
        <time>2025-09-14T11:27:27.000Z</time>
      </trkpt>
      <trkpt lat="44.89469" lon="3.71257">
        <ele>1007</ele>
        <time>2025-09-14T11:27:53.000Z</time>
      </trkpt>
      <trkpt lat="44.89453" lon="3.71234">
        <ele>1009</ele>
        <time>2025-09-14T11:28:17.000Z</time>
      </trkpt>
      <trkpt lat="44.89438" lon="3.7121">
        <ele>1008</ele>
        <time>2025-09-14T11:28:40.000Z</time>
      </trkpt>
      <trkpt lat="44.89422" lon="3.71188">
        <ele>1008</ele>
        <time>2025-09-14T11:29:03.000Z</time>
      </trkpt>
      <trkpt lat="44.89416" lon="3.71155">
        <ele>1008</ele>
        <time>2025-09-14T11:29:37.000Z</time>
      </trkpt>
      <trkpt lat="44.89416" lon="3.71122">
        <ele>1005</ele>
        <time>2025-09-14T11:30:02.000Z</time>
      </trkpt>
      <trkpt lat="44.89417" lon="3.71089">
        <ele>1003</ele>
        <time>2025-09-14T11:30:26.000Z</time>
      </trkpt>
      <trkpt lat="44.89418" lon="3.71057">
        <ele>1003</ele>
        <time>2025-09-14T11:30:49.000Z</time>
      </trkpt>
      <trkpt lat="44.89417" lon="3.71025">
        <ele>1000</ele>
        <time>2025-09-14T11:31:11.000Z</time>
      </trkpt>
      <trkpt lat="44.8942" lon="3.70992">
        <ele>1000</ele>
        <time>2025-09-14T11:31:30.000Z</time>
      </trkpt>
      <trkpt lat="44.89424" lon="3.7096">
        <ele>1000</ele>
        <time>2025-09-14T11:31:49.000Z</time>
      </trkpt>
      <trkpt lat="44.89432" lon="3.70929">
        <ele>1000</ele>
        <time>2025-09-14T11:32:58.000Z</time>
      </trkpt>
      <trkpt lat="44.89439" lon="3.70898">
        <ele>1002</ele>
        <time>2025-09-14T11:33:22.000Z</time>
      </trkpt>
      <trkpt lat="44.89435" lon="3.70867">
        <ele>999</ele>
        <time>2025-09-14T11:33:42.000Z</time>
      </trkpt>
      <trkpt lat="44.89429" lon="3.70835">
        <ele>999</ele>
        <time>2025-09-14T11:34:03.000Z</time>
      </trkpt>
      <trkpt lat="44.89423" lon="3.70803">
        <ele>994</ele>
        <time>2025-09-14T11:34:23.000Z</time>
      </trkpt>
      <trkpt lat="44.89416" lon="3.70772">
        <ele>987</ele>
        <time>2025-09-14T11:34:43.000Z</time>
      </trkpt>
      <trkpt lat="44.89404" lon="3.70743">
        <ele>984</ele>
        <time>2025-09-14T11:35:03.000Z</time>
      </trkpt>
      <trkpt lat="44.89392" lon="3.70716">
        <ele>979</ele>
        <time>2025-09-14T11:35:30.000Z</time>
      </trkpt>
      <trkpt lat="44.89377" lon="3.70692">
        <ele>974</ele>
        <time>2025-09-14T11:35:49.000Z</time>
      </trkpt>
      <trkpt lat="44.89364" lon="3.70665">
        <ele>969</ele>
        <time>2025-09-14T11:36:05.000Z</time>
      </trkpt>
      <trkpt lat="44.89351" lon="3.70638">
        <ele>968</ele>
        <time>2025-09-14T11:36:29.000Z</time>
      </trkpt>
      <trkpt lat="44.89341" lon="3.70608">
        <ele>965</ele>
        <time>2025-09-14T11:36:45.000Z</time>
      </trkpt>
      <trkpt lat="44.89342" lon="3.70575">
        <ele>963</ele>
        <time>2025-09-14T11:37:01.000Z</time>
      </trkpt>
      <trkpt lat="44.89349" lon="3.70544">
        <ele>962</ele>
        <time>2025-09-14T11:37:27.000Z</time>
      </trkpt>
      <trkpt lat="44.89364" lon="3.70518">
        <ele>960</ele>
        <time>2025-09-14T11:37:43.000Z</time>
      </trkpt>
      <trkpt lat="44.89377" lon="3.70492">
        <ele>961</ele>
        <time>2025-09-14T11:38:04.000Z</time>
      </trkpt>
      <trkpt lat="44.89392" lon="3.70466">
        <ele>954</ele>
        <time>2025-09-14T11:38:29.000Z</time>
      </trkpt>
      <trkpt lat="44.89403" lon="3.70437">
        <ele>952</ele>
        <time>2025-09-14T11:39:19.000Z</time>
      </trkpt>
      <trkpt lat="44.89411" lon="3.70408">
        <ele>952</ele>
        <time>2025-09-14T11:40:16.000Z</time>
      </trkpt>
      <trkpt lat="44.89431" lon="3.70392">
        <ele>946</ele>
        <time>2025-09-14T11:42:39.000Z</time>
      </trkpt>
      <trkpt lat="44.89456" lon="3.70395">
        <ele>947</ele>
        <time>2025-09-14T11:43:23.000Z</time>
      </trkpt>
      <trkpt lat="44.89434" lon="3.70386">
        <ele>944</ele>
        <time>2025-09-14T11:45:22.000Z</time>
      </trkpt>
      <trkpt lat="44.89417" lon="3.70409">
        <ele>946</ele>
        <time>2025-09-14T11:45:58.000Z</time>
      </trkpt>
      <trkpt lat="44.89412" lon="3.70442">
        <ele>948</ele>
        <time>2025-09-14T11:46:31.000Z</time>
      </trkpt>
      <trkpt lat="44.89414" lon="3.70406">
        <ele>954</ele>
        <time>2025-09-14T11:47:25.000Z</time>
      </trkpt>
      <trkpt lat="44.89417" lon="3.70374">
        <ele>944</ele>
        <time>2025-09-14T11:47:47.000Z</time>
      </trkpt>
      <trkpt lat="44.89421" lon="3.7034">
        <ele>937</ele>
        <time>2025-09-14T11:48:04.000Z</time>
      </trkpt>
      <trkpt lat="44.89429" lon="3.70311">
        <ele>932</ele>
        <time>2025-09-14T11:48:26.000Z</time>
      </trkpt>
      <trkpt lat="44.89443" lon="3.70286">
        <ele>931</ele>
        <time>2025-09-14T11:48:53.000Z</time>
      </trkpt>
      <trkpt lat="44.89465" lon="3.70272">
        <ele>926</ele>
        <time>2025-09-14T11:49:56.000Z</time>
      </trkpt>
      <trkpt lat="44.89465" lon="3.70304">
        <ele>925</ele>
        <time>2025-09-14T11:50:22.000Z</time>
      </trkpt>
      <trkpt lat="44.89469" lon="3.70335">
        <ele>927</ele>
        <time>2025-09-14T11:50:41.000Z</time>
      </trkpt>
      <trkpt lat="44.89478" lon="3.70365">
        <ele>927</ele>
        <time>2025-09-14T11:51:10.000Z</time>
      </trkpt>
      <trkpt lat="44.89497" lon="3.70383">
        <ele>927</ele>
        <time>2025-09-14T11:51:36.000Z</time>
      </trkpt>
      <trkpt lat="44.89516" lon="3.70401">
        <ele>926</ele>
        <time>2025-09-14T11:52:08.000Z</time>
      </trkpt>
      <trkpt lat="44.89537" lon="3.70411">
        <ele>922</ele>
        <time>2025-09-14T11:52:43.000Z</time>
      </trkpt>
      <trkpt lat="44.89559" lon="3.7042">
        <ele>920</ele>
        <time>2025-09-14T11:53:06.000Z</time>
      </trkpt>
      <trkpt lat="44.89583" lon="3.70422">
        <ele>919</ele>
        <time>2025-09-14T11:53:30.000Z</time>
      </trkpt>
      <trkpt lat="44.89607" lon="3.7042">
        <ele>907</ele>
        <time>2025-09-14T11:54:06.000Z</time>
      </trkpt>
      <trkpt lat="44.8963" lon="3.70419">
        <ele>904</ele>
        <time>2025-09-14T11:54:27.000Z</time>
      </trkpt>
      <trkpt lat="44.89653" lon="3.70416">
        <ele>906</ele>
        <time>2025-09-14T11:54:50.000Z</time>
      </trkpt>
      <trkpt lat="44.89671" lon="3.70393">
        <ele>908</ele>
        <time>2025-09-14T11:55:46.000Z</time>
      </trkpt>
      <trkpt lat="44.89663" lon="3.70362">
        <ele>897</ele>
        <time>2025-09-14T11:56:16.000Z</time>
      </trkpt>
      <trkpt lat="44.89657" lon="3.7033">
        <ele>891</ele>
        <time>2025-09-14T11:56:41.000Z</time>
      </trkpt>
      <trkpt lat="44.89664" lon="3.70299">
        <ele>888</ele>
        <time>2025-09-14T11:57:07.000Z</time>
      </trkpt>
      <trkpt lat="44.8968" lon="3.70274">
        <ele>885</ele>
        <time>2025-09-14T11:57:48.000Z</time>
      </trkpt>
      <trkpt lat="44.89698" lon="3.70255">
        <ele>882</ele>
        <time>2025-09-14T11:58:09.000Z</time>
      </trkpt>
      <trkpt lat="44.89712" lon="3.7023">
        <ele>880</ele>
        <time>2025-09-14T11:58:38.000Z</time>
      </trkpt>
      <trkpt lat="44.89729" lon="3.70206">
        <ele>883</ele>
        <time>2025-09-14T11:59:06.000Z</time>
      </trkpt>
      <trkpt lat="44.89742" lon="3.70178">
        <ele>885</ele>
        <time>2025-09-14T12:04:11.000Z</time>
      </trkpt>
      <trkpt lat="44.89728" lon="3.70153">
        <ele>885</ele>
        <time>2025-09-14T12:04:42.000Z</time>
      </trkpt>
      <trkpt lat="44.89727" lon="3.70121">
        <ele>880</ele>
        <time>2025-09-14T12:05:21.000Z</time>
      </trkpt>
      <trkpt lat="44.89732" lon="3.70088">
        <ele>879</ele>
        <time>2025-09-14T12:05:47.000Z</time>
      </trkpt>
      <trkpt lat="44.89739" lon="3.70057">
        <ele>877</ele>
        <time>2025-09-14T12:06:14.000Z</time>
      </trkpt>
      <trkpt lat="44.89747" lon="3.70028">
        <ele>873</ele>
        <time>2025-09-14T12:06:37.000Z</time>
      </trkpt>
      <trkpt lat="44.89759" lon="3.69999">
        <ele>875</ele>
        <time>2025-09-14T12:06:58.000Z</time>
      </trkpt>
      <trkpt lat="44.8977" lon="3.69971">
        <ele>874</ele>
        <time>2025-09-14T12:07:44.000Z</time>
      </trkpt>
      <trkpt lat="44.89784" lon="3.69945">
        <ele>873</ele>
        <time>2025-09-14T12:08:20.000Z</time>
      </trkpt>
      <trkpt lat="44.89803" lon="3.69927">
        <ele>869</ele>
        <time>2025-09-14T12:10:43.000Z</time>
      </trkpt>
      <trkpt lat="44.89822" lon="3.69907">
        <ele>866</ele>
        <time>2025-09-14T12:11:09.000Z</time>
      </trkpt>
      <trkpt lat="44.8984" lon="3.69887">
        <ele>870</ele>
        <time>2025-09-14T12:11:31.000Z</time>
      </trkpt>
      <trkpt lat="44.89845" lon="3.69853">
        <ele>865</ele>
        <time>2025-09-14T12:11:54.000Z</time>
      </trkpt>
      <trkpt lat="44.89844" lon="3.69821">
        <ele>866</ele>
        <time>2025-09-14T12:12:14.000Z</time>
      </trkpt>
      <trkpt lat="44.89844" lon="3.69787">
        <ele>864</ele>
        <time>2025-09-14T12:13:39.000Z</time>
      </trkpt>
      <trkpt lat="44.89839" lon="3.69756">
        <ele>860</ele>
        <time>2025-09-14T12:14:25.000Z</time>
      </trkpt>
      <trkpt lat="44.89837" lon="3.69722">
        <ele>857</ele>
        <time>2025-09-14T12:14:55.000Z</time>
      </trkpt>
      <trkpt lat="44.8984" lon="3.6969">
        <ele>856</ele>
        <time>2025-09-14T12:15:17.000Z</time>
      </trkpt>
      <trkpt lat="44.89845" lon="3.69659">
        <ele>851</ele>
        <time>2025-09-14T12:15:39.000Z</time>
      </trkpt>
      <trkpt lat="44.89853" lon="3.69628">
        <ele>851</ele>
        <time>2025-09-14T12:16:04.000Z</time>
      </trkpt>
      <trkpt lat="44.89855" lon="3.69596">
        <ele>850</ele>
        <time>2025-09-14T12:16:29.000Z</time>
      </trkpt>
      <trkpt lat="44.89855" lon="3.69564">
        <ele>851</ele>
        <time>2025-09-14T12:16:52.000Z</time>
      </trkpt>
      <trkpt lat="44.89856" lon="3.69532">
        <ele>848</ele>
        <time>2025-09-14T12:17:15.000Z</time>
      </trkpt>
      <trkpt lat="44.89856" lon="3.695">
        <ele>849</ele>
        <time>2025-09-14T12:17:35.000Z</time>
      </trkpt>
      <trkpt lat="44.89853" lon="3.69467">
        <ele>845</ele>
        <time>2025-09-14T12:17:57.000Z</time>
      </trkpt>
      <trkpt lat="44.8985" lon="3.69433">
        <ele>845</ele>
        <time>2025-09-14T12:18:17.000Z</time>
      </trkpt>
      <trkpt lat="44.89837" lon="3.69404">
        <ele>847</ele>
        <time>2025-09-14T12:18:37.000Z</time>
      </trkpt>
      <trkpt lat="44.89828" lon="3.69375">
        <ele>840</ele>
        <time>2025-09-14T12:19:23.000Z</time>
      </trkpt>
      <trkpt lat="44.89831" lon="3.69343">
        <ele>835</ele>
        <time>2025-09-14T12:19:43.000Z</time>
      </trkpt>
      <trkpt lat="44.89849" lon="3.69322">
        <ele>840</ele>
        <time>2025-09-14T12:20:07.000Z</time>
      </trkpt>
      <trkpt lat="44.89869" lon="3.69306">
        <ele>841</ele>
        <time>2025-09-14T12:20:33.000Z</time>
      </trkpt>
      <trkpt lat="44.89889" lon="3.69291">
        <ele>840</ele>
        <time>2025-09-14T12:20:52.000Z</time>
      </trkpt>
      <trkpt lat="44.89909" lon="3.69274">
        <ele>840</ele>
        <time>2025-09-14T12:21:15.000Z</time>
      </trkpt>
      <trkpt lat="44.89929" lon="3.69259">
        <ele>838</ele>
        <time>2025-09-14T12:21:36.000Z</time>
      </trkpt>
      <trkpt lat="44.89949" lon="3.69241">
        <ele>838</ele>
        <time>2025-09-14T12:21:57.000Z</time>
      </trkpt>
      <trkpt lat="44.8997" lon="3.6922">
        <ele>841</ele>
        <time>2025-09-14T12:22:46.000Z</time>
      </trkpt>
      <trkpt lat="44.89984" lon="3.69194">
        <ele>844</ele>
        <time>2025-09-14T12:23:14.000Z</time>
      </trkpt>
      <trkpt lat="44.89991" lon="3.69164">
        <ele>849</ele>
        <time>2025-09-14T12:23:39.000Z</time>
      </trkpt>
      <trkpt lat="44.90005" lon="3.69139">
        <ele>842</ele>
        <time>2025-09-14T12:41:59.000Z</time>
      </trkpt>
      <trkpt lat="44.90023" lon="3.69117">
        <ele>834</ele>
        <time>2025-09-14T12:42:27.000Z</time>
      </trkpt>
      <trkpt lat="44.90044" lon="3.69105">
        <ele>842</ele>
        <time>2025-09-14T12:42:45.000Z</time>
      </trkpt>
      <trkpt lat="44.90063" lon="3.69089">
        <ele>843</ele>
        <time>2025-09-14T12:43:07.000Z</time>
      </trkpt>
      <trkpt lat="44.90078" lon="3.69064">
        <ele>843</ele>
        <time>2025-09-14T12:43:29.000Z</time>
      </trkpt>
      <trkpt lat="44.90094" lon="3.69042">
        <ele>840</ele>
        <time>2025-09-14T12:43:51.000Z</time>
      </trkpt>
      <trkpt lat="44.90109" lon="3.69017">
        <ele>839</ele>
        <time>2025-09-14T12:44:16.000Z</time>
      </trkpt>
      <trkpt lat="44.90116" lon="3.68987">
        <ele>839</ele>
        <time>2025-09-14T12:44:35.000Z</time>
      </trkpt>
      <trkpt lat="44.90116" lon="3.68953">
        <ele>837</ele>
        <time>2025-09-14T12:44:55.000Z</time>
      </trkpt>
      <trkpt lat="44.90129" lon="3.68925">
        <ele>834</ele>
        <time>2025-09-14T12:45:13.000Z</time>
      </trkpt>
      <trkpt lat="44.9013" lon="3.68893">
        <ele>838</ele>
        <time>2025-09-14T12:45:29.000Z</time>
      </trkpt>
      <trkpt lat="44.90132" lon="3.6886">
        <ele>840</ele>
        <time>2025-09-14T12:45:49.000Z</time>
      </trkpt>
      <trkpt lat="44.90132" lon="3.68826">
        <ele>838</ele>
        <time>2025-09-14T12:46:09.000Z</time>
      </trkpt>
      <trkpt lat="44.9014" lon="3.68795">
        <ele>842</ele>
        <time>2025-09-14T12:46:33.000Z</time>
      </trkpt>
      <trkpt lat="44.90147" lon="3.68763">
        <ele>837</ele>
        <time>2025-09-14T12:46:56.000Z</time>
      </trkpt>
      <trkpt lat="44.90155" lon="3.68734">
        <ele>835</ele>
        <time>2025-09-14T12:47:17.000Z</time>
      </trkpt>
      <trkpt lat="44.90149" lon="3.68703">
        <ele>823</ele>
        <time>2025-09-14T12:47:44.000Z</time>
      </trkpt>
      <trkpt lat="44.90171" lon="3.68704">
        <ele>828</ele>
        <time>2025-09-14T12:48:07.000Z</time>
      </trkpt>
      <trkpt lat="44.9018" lon="3.68674">
        <ele>822</ele>
        <time>2025-09-14T12:48:36.000Z</time>
      </trkpt>
      <trkpt lat="44.90171" lon="3.68644">
        <ele>822</ele>
        <time>2025-09-14T12:49:39.000Z</time>
      </trkpt>
      <trkpt lat="44.90163" lon="3.68613">
        <ele>820</ele>
        <time>2025-09-14T12:50:12.000Z</time>
      </trkpt>
      <trkpt lat="44.90154" lon="3.68583">
        <ele>819</ele>
        <time>2025-09-14T12:50:32.000Z</time>
      </trkpt>
      <trkpt lat="44.90143" lon="3.68556">
        <ele>816</ele>
        <time>2025-09-14T12:50:54.000Z</time>
      </trkpt>
      <trkpt lat="44.90132" lon="3.68528">
        <ele>816</ele>
        <time>2025-09-14T12:51:15.000Z</time>
      </trkpt>
      <trkpt lat="44.90119" lon="3.685">
        <ele>813</ele>
        <time>2025-09-14T12:51:39.000Z</time>
      </trkpt>
      <trkpt lat="44.90105" lon="3.68475">
        <ele>809</ele>
        <time>2025-09-14T12:52:32.000Z</time>
      </trkpt>
      <trkpt lat="44.90092" lon="3.68447">
        <ele>809</ele>
        <time>2025-09-14T12:52:53.000Z</time>
      </trkpt>
      <trkpt lat="44.90086" lon="3.68415">
        <ele>813</ele>
        <time>2025-09-14T12:54:34.000Z</time>
      </trkpt>
      <trkpt lat="44.90082" lon="3.68384">
        <ele>812</ele>
        <time>2025-09-14T12:55:10.000Z</time>
      </trkpt>
      <trkpt lat="44.90074" lon="3.68354">
        <ele>810</ele>
        <time>2025-09-14T12:55:32.000Z</time>
      </trkpt>
      <trkpt lat="44.90082" lon="3.68384">
        <ele>812</ele>
        <time>2025-09-14T13:00:26.000Z</time>
      </trkpt>
      <trkpt lat="44.90091" lon="3.68413">
        <ele>812</ele>
        <time>2025-09-14T13:00:48.000Z</time>
      </trkpt>
      <trkpt lat="44.90113" lon="3.6842">
        <ele>810</ele>
        <time>2025-09-14T13:01:09.000Z</time>
      </trkpt>
      <trkpt lat="44.90132" lon="3.68439">
        <ele>805</ele>
        <time>2025-09-14T13:01:29.000Z</time>
      </trkpt>
      <trkpt lat="44.90144" lon="3.68467">
        <ele>806</ele>
        <time>2025-09-14T13:01:48.000Z</time>
      </trkpt>
      <trkpt lat="44.9016" lon="3.68489">
        <ele>807</ele>
        <time>2025-09-14T13:02:07.000Z</time>
      </trkpt>
      <trkpt lat="44.90179" lon="3.68508">
        <ele>804</ele>
        <time>2025-09-14T13:02:26.000Z</time>
      </trkpt>
      <trkpt lat="44.90197" lon="3.68529">
        <ele>802</ele>
        <time>2025-09-14T13:02:56.000Z</time>
      </trkpt>
      <trkpt lat="44.90215" lon="3.68551">
        <ele>800</ele>
        <time>2025-09-14T13:03:19.000Z</time>
      </trkpt>
      <trkpt lat="44.90235" lon="3.68567">
        <ele>800</ele>
        <time>2025-09-14T13:03:38.000Z</time>
      </trkpt>
      <trkpt lat="44.90254" lon="3.68585">
        <ele>796</ele>
        <time>2025-09-14T13:03:59.000Z</time>
      </trkpt>
      <trkpt lat="44.90273" lon="3.68602">
        <ele>798</ele>
        <time>2025-09-14T13:04:18.000Z</time>
      </trkpt>
      <trkpt lat="44.90294" lon="3.68615">
        <ele>793</ele>
        <time>2025-09-14T13:04:36.000Z</time>
      </trkpt>
      <trkpt lat="44.90316" lon="3.68627">
        <ele>796</ele>
        <time>2025-09-14T13:04:56.000Z</time>
      </trkpt>
      <trkpt lat="44.90338" lon="3.68638">
        <ele>794</ele>
        <time>2025-09-14T13:05:14.000Z</time>
      </trkpt>
      <trkpt lat="44.90359" lon="3.68651">
        <ele>793</ele>
        <time>2025-09-14T13:05:33.000Z</time>
      </trkpt>
      <trkpt lat="44.9038" lon="3.68664">
        <ele>793</ele>
        <time>2025-09-14T13:05:52.000Z</time>
      </trkpt>
      <trkpt lat="44.90402" lon="3.68665">
        <ele>789</ele>
        <time>2025-09-14T13:06:10.000Z</time>
      </trkpt>
      <trkpt lat="44.9042" lon="3.68643">
        <ele>789</ele>
        <time>2025-09-14T13:06:29.000Z</time>
      </trkpt>
      <trkpt lat="44.90429" lon="3.68613">
        <ele>788</ele>
        <time>2025-09-14T13:06:44.000Z</time>
      </trkpt>
      <trkpt lat="44.90438" lon="3.68584">
        <ele>788</ele>
        <time>2025-09-14T13:07:07.000Z</time>
      </trkpt>
      <trkpt lat="44.90448" lon="3.68555">
        <ele>784</ele>
        <time>2025-09-14T13:07:27.000Z</time>
      </trkpt>
      <trkpt lat="44.90454" lon="3.68524">
        <ele>784</ele>
        <time>2025-09-14T13:07:45.000Z</time>
      </trkpt>
      <trkpt lat="44.90466" lon="3.68496">
        <ele>781</ele>
        <time>2025-09-14T13:08:06.000Z</time>
      </trkpt>
      <trkpt lat="44.90475" lon="3.68467">
        <ele>781</ele>
        <time>2025-09-14T13:08:24.000Z</time>
      </trkpt>
      <trkpt lat="44.90485" lon="3.68438">
        <ele>779</ele>
        <time>2025-09-14T13:08:44.000Z</time>
      </trkpt>
      <trkpt lat="44.90496" lon="3.68408">
        <ele>782</ele>
        <time>2025-09-14T13:09:03.000Z</time>
      </trkpt>
      <trkpt lat="44.90517" lon="3.68394">
        <ele>774</ele>
        <time>2025-09-14T13:09:32.000Z</time>
      </trkpt>
      <trkpt lat="44.90535" lon="3.68374">
        <ele>778</ele>
        <time>2025-09-14T13:11:09.000Z</time>
      </trkpt>
      <trkpt lat="44.90555" lon="3.68358">
        <ele>780</ele>
        <time>2025-09-14T13:12:09.000Z</time>
      </trkpt>
      <trkpt lat="44.90572" lon="3.68336">
        <ele>788</ele>
        <time>2025-09-14T13:12:34.000Z</time>
      </trkpt>
      <trkpt lat="44.90589" lon="3.68312">
        <ele>788</ele>
        <time>2025-09-14T13:12:58.000Z</time>
      </trkpt>
      <trkpt lat="44.90598" lon="3.68283">
        <ele>786</ele>
        <time>2025-09-14T13:14:42.000Z</time>
      </trkpt>
      <trkpt lat="44.90587" lon="3.68255">
        <ele>787</ele>
        <time>2025-09-14T13:15:04.000Z</time>
      </trkpt>
      <trkpt lat="44.9059" lon="3.68223">
        <ele>788</ele>
        <time>2025-09-14T13:16:43.000Z</time>
      </trkpt>
      <trkpt lat="44.90592" lon="3.68191">
        <ele>791</ele>
        <time>2025-09-14T13:17:50.000Z</time>
      </trkpt>
      <trkpt lat="44.90613" lon="3.68201">
        <ele>789</ele>
        <time>2025-09-14T13:41:30.000Z</time>
      </trkpt>
      <trkpt lat="44.90596" lon="3.6818">
        <ele>790</ele>
        <time>2025-09-14T13:42:34.000Z</time>
      </trkpt>
      <trkpt lat="44.90589" lon="3.6815">
        <ele>784</ele>
        <time>2025-09-14T13:46:34.000Z</time>
      </trkpt>
      <trkpt lat="44.90594" lon="3.68182">
        <ele>790</ele>
        <time>2025-09-14T13:49:27.000Z</time>
      </trkpt>
      <trkpt lat="44.90603" lon="3.68213">
        <ele>787</ele>
        <time>2025-09-14T13:59:23.000Z</time>
      </trkpt>
      <trkpt lat="44.90625" lon="3.68224">
        <ele>788</ele>
        <time>2025-09-14T13:59:54.000Z</time>
      </trkpt>
      <trkpt lat="44.90648" lon="3.68223">
        <ele>790</ele>
        <time>2025-09-14T14:00:30.000Z</time>
      </trkpt>
      <trkpt lat="44.9067" lon="3.68212">
        <ele>789</ele>
        <time>2025-09-14T14:02:08.000Z</time>
      </trkpt>
      <trkpt lat="44.90689" lon="3.68195">
        <ele>789</ele>
        <time>2025-09-14T14:03:06.000Z</time>
      </trkpt>
      <trkpt lat="44.90707" lon="3.68174">
        <ele>791</ele>
        <time>2025-09-14T14:03:49.000Z</time>
      </trkpt>
      <trkpt lat="44.90725" lon="3.68154">
        <ele>790</ele>
        <time>2025-09-14T14:04:12.000Z</time>
      </trkpt>
      <trkpt lat="44.90744" lon="3.68136">
        <ele>788</ele>
        <time>2025-09-14T14:04:39.000Z</time>
      </trkpt>
      <trkpt lat="44.90764" lon="3.68122">
        <ele>786</ele>
        <time>2025-09-14T14:04:59.000Z</time>
      </trkpt>
      <trkpt lat="44.90783" lon="3.68105">
        <ele>783</ele>
        <time>2025-09-14T14:05:20.000Z</time>
      </trkpt>
      <trkpt lat="44.90804" lon="3.68088">
        <ele>779</ele>
        <time>2025-09-14T14:05:50.000Z</time>
      </trkpt>
      <trkpt lat="44.90821" lon="3.68068">
        <ele>776</ele>
        <time>2025-09-14T14:06:15.000Z</time>
      </trkpt>
      <trkpt lat="44.90838" lon="3.68047">
        <ele>773</ele>
        <time>2025-09-14T14:06:37.000Z</time>
      </trkpt>
      <trkpt lat="44.90857" lon="3.68028">
        <ele>772</ele>
        <time>2025-09-14T14:06:56.000Z</time>
      </trkpt>
      <trkpt lat="44.90873" lon="3.68006">
        <ele>767</ele>
        <time>2025-09-14T14:07:13.000Z</time>
      </trkpt>
      <trkpt lat="44.90877" lon="3.67975">
        <ele>764</ele>
        <time>2025-09-14T14:07:50.000Z</time>
      </trkpt>
      <trkpt lat="44.90893" lon="3.67951">
        <ele>762</ele>
        <time>2025-09-14T14:08:26.000Z</time>
      </trkpt>
      <trkpt lat="44.90909" lon="3.67973">
        <ele>755</ele>
        <time>2025-09-14T14:09:29.000Z</time>
      </trkpt>
      <trkpt lat="44.90933" lon="3.6797">
        <ele>753</ele>
        <time>2025-09-14T14:10:05.000Z</time>
      </trkpt>
      <trkpt lat="44.90948" lon="3.67945">
        <ele>751</ele>
        <time>2025-09-14T14:10:31.000Z</time>
      </trkpt>
      <trkpt lat="44.90967" lon="3.67927">
        <ele>746</ele>
        <time>2025-09-14T14:10:50.000Z</time>
      </trkpt>
      <trkpt lat="44.90986" lon="3.67911">
        <ele>743</ele>
        <time>2025-09-14T14:11:10.000Z</time>
      </trkpt>
      <trkpt lat="44.91007" lon="3.67898">
        <ele>740</ele>
        <time>2025-09-14T14:11:30.000Z</time>
      </trkpt>
      <trkpt lat="44.9103" lon="3.67891">
        <ele>738</ele>
        <time>2025-09-14T14:11:50.000Z</time>
      </trkpt>
      <trkpt lat="44.91052" lon="3.67882">
        <ele>736</ele>
        <time>2025-09-14T14:12:12.000Z</time>
      </trkpt>
      <trkpt lat="44.91073" lon="3.6787">
        <ele>737</ele>
        <time>2025-09-14T14:12:29.000Z</time>
      </trkpt>
      <trkpt lat="44.91093" lon="3.67854">
        <ele>734</ele>
        <time>2025-09-14T14:12:50.000Z</time>
      </trkpt>
      <trkpt lat="44.91114" lon="3.67841">
        <ele>736</ele>
        <time>2025-09-14T14:13:11.000Z</time>
      </trkpt>
      <trkpt lat="44.91137" lon="3.67835">
        <ele>733</ele>
        <time>2025-09-14T14:13:36.000Z</time>
      </trkpt>
      <trkpt lat="44.91159" lon="3.67841">
        <ele>732</ele>
        <time>2025-09-14T14:14:06.000Z</time>
      </trkpt>
      <trkpt lat="44.91172" lon="3.67813">
        <ele>729</ele>
        <time>2025-09-14T14:14:40.000Z</time>
      </trkpt>
      <trkpt lat="44.91187" lon="3.6779">
        <ele>723</ele>
        <time>2025-09-14T14:15:11.000Z</time>
      </trkpt>
      <trkpt lat="44.91202" lon="3.67767">
        <ele>719</ele>
        <time>2025-09-14T14:15:36.000Z</time>
      </trkpt>
      <trkpt lat="44.91219" lon="3.67744">
        <ele>717</ele>
        <time>2025-09-14T14:16:01.000Z</time>
      </trkpt>
      <trkpt lat="44.91236" lon="3.67724">
        <ele>714</ele>
        <time>2025-09-14T14:16:26.000Z</time>
      </trkpt>
      <trkpt lat="44.91252" lon="3.677">
        <ele>709</ele>
        <time>2025-09-14T14:17:05.000Z</time>
      </trkpt>
      <trkpt lat="44.91264" lon="3.67673">
        <ele>704</ele>
        <time>2025-09-14T14:17:42.000Z</time>
      </trkpt>
      <trkpt lat="44.91278" lon="3.67647">
        <ele>700</ele>
        <time>2025-09-14T14:18:15.000Z</time>
      </trkpt>
      <trkpt lat="44.91296" lon="3.67626">
        <ele>696</ele>
        <time>2025-09-14T14:18:52.000Z</time>
      </trkpt>
      <trkpt lat="44.91308" lon="3.67598">
        <ele>690</ele>
        <time>2025-09-14T14:19:18.000Z</time>
      </trkpt>
      <trkpt lat="44.91319" lon="3.67571">
        <ele>683</ele>
        <time>2025-09-14T14:19:43.000Z</time>
      </trkpt>
      <trkpt lat="44.91341" lon="3.67558">
        <ele>684</ele>
        <time>2025-09-14T14:20:01.000Z</time>
      </trkpt>
      <trkpt lat="44.91359" lon="3.67538">
        <ele>681</ele>
        <time>2025-09-14T14:30:29.000Z</time>
      </trkpt>
      <trkpt lat="44.9138" lon="3.67527">
        <ele>678</ele>
        <time>2025-09-14T14:30:59.000Z</time>
      </trkpt>
      <trkpt lat="44.914" lon="3.67513">
        <ele>677</ele>
        <time>2025-09-14T14:31:20.000Z</time>
      </trkpt>
      <trkpt lat="44.91419" lon="3.67494">
        <ele>675</ele>
        <time>2025-09-14T14:31:42.000Z</time>
      </trkpt>
      <trkpt lat="44.9144" lon="3.67481">
        <ele>673</ele>
        <time>2025-09-14T14:32:03.000Z</time>
      </trkpt>
      <trkpt lat="44.91461" lon="3.67466">
        <ele>674</ele>
        <time>2025-09-14T14:32:23.000Z</time>
      </trkpt>
      <trkpt lat="44.91481" lon="3.67452">
        <ele>678</ele>
        <time>2025-09-14T14:32:44.000Z</time>
      </trkpt>
      <trkpt lat="44.91489" lon="3.67422">
        <ele>677</ele>
        <time>2025-09-14T14:33:05.000Z</time>
      </trkpt>
      <trkpt lat="44.91491" lon="3.67389">
        <ele>672</ele>
        <time>2025-09-14T14:33:24.000Z</time>
      </trkpt>
      <trkpt lat="44.91504" lon="3.67363">
        <ele>672</ele>
        <time>2025-09-14T14:33:42.000Z</time>
      </trkpt>
      <trkpt lat="44.91519" lon="3.67337">
        <ele>672</ele>
        <time>2025-09-14T14:34:01.000Z</time>
      </trkpt>
      <trkpt lat="44.91538" lon="3.6732">
        <ele>675</ele>
        <time>2025-09-14T14:34:19.000Z</time>
      </trkpt>
      <trkpt lat="44.91558" lon="3.67303">
        <ele>681</ele>
        <time>2025-09-14T14:34:39.000Z</time>
      </trkpt>
      <trkpt lat="44.91578" lon="3.67289">
        <ele>680</ele>
        <time>2025-09-14T14:34:58.000Z</time>
      </trkpt>
      <trkpt lat="44.91596" lon="3.6727">
        <ele>676</ele>
        <time>2025-09-14T14:35:16.000Z</time>
      </trkpt>
      <trkpt lat="44.91615" lon="3.67252">
        <ele>675</ele>
        <time>2025-09-14T14:35:38.000Z</time>
      </trkpt>
      <trkpt lat="44.91632" lon="3.67231">
        <ele>675</ele>
        <time>2025-09-14T14:35:58.000Z</time>
      </trkpt>
      <trkpt lat="44.91652" lon="3.67214">
        <ele>674</ele>
        <time>2025-09-14T14:36:18.000Z</time>
      </trkpt>
      <trkpt lat="44.91674" lon="3.67205">
        <ele>672</ele>
        <time>2025-09-14T14:36:37.000Z</time>
      </trkpt>
      <trkpt lat="44.91696" lon="3.67197">
        <ele>668</ele>
        <time>2025-09-14T14:36:58.000Z</time>
      </trkpt>
      <trkpt lat="44.91717" lon="3.67183">
        <ele>668</ele>
        <time>2025-09-14T14:37:18.000Z</time>
      </trkpt>
      <trkpt lat="44.91738" lon="3.67172">
        <ele>668</ele>
        <time>2025-09-14T14:37:37.000Z</time>
      </trkpt>
      <trkpt lat="44.9176" lon="3.67159">
        <ele>665</ele>
        <time>2025-09-14T14:37:58.000Z</time>
      </trkpt>
      <trkpt lat="44.91782" lon="3.67149">
        <ele>663</ele>
        <time>2025-09-14T14:38:19.000Z</time>
      </trkpt>
      <trkpt lat="44.91803" lon="3.67137">
        <ele>661</ele>
        <time>2025-09-14T14:38:39.000Z</time>
      </trkpt>
      <trkpt lat="44.91823" lon="3.67121">
        <ele>658</ele>
        <time>2025-09-14T14:39:02.000Z</time>
      </trkpt>
      <trkpt lat="44.91835" lon="3.67094">
        <ele>651</ele>
        <time>2025-09-14T14:39:25.000Z</time>
      </trkpt>
      <trkpt lat="44.91827" lon="3.67064">
        <ele>657</ele>
        <time>2025-09-14T14:40:08.000Z</time>
      </trkpt>
      <trkpt lat="44.91814" lon="3.67037">
        <ele>656</ele>
        <time>2025-09-14T14:40:28.000Z</time>
      </trkpt>
      <trkpt lat="44.91798" lon="3.67013">
        <ele>658</ele>
        <time>2025-09-14T14:40:47.000Z</time>
      </trkpt>
      <trkpt lat="44.91782" lon="3.66988">
        <ele>659</ele>
        <time>2025-09-14T14:41:02.000Z</time>
      </trkpt>
      <trkpt lat="44.91766" lon="3.66965">
        <ele>660</ele>
        <time>2025-09-14T14:41:17.000Z</time>
      </trkpt>
      <trkpt lat="44.91746" lon="3.66949">
        <ele>662</ele>
        <time>2025-09-14T14:41:32.000Z</time>
      </trkpt>
      <trkpt lat="44.91725" lon="3.66933">
        <ele>664</ele>
        <time>2025-09-14T14:41:57.000Z</time>
      </trkpt>
      <trkpt lat="44.91702" lon="3.66926">
        <ele>664</ele>
        <time>2025-09-14T14:42:11.000Z</time>
      </trkpt>
      <trkpt lat="44.91678" lon="3.66922">
        <ele>663</ele>
        <time>2025-09-14T14:42:26.000Z</time>
      </trkpt>
      <trkpt lat="44.91655" lon="3.66919">
        <ele>660</ele>
        <time>2025-09-14T14:42:44.000Z</time>
      </trkpt>
      <trkpt lat="44.91632" lon="3.6692">
        <ele>663</ele>
        <time>2025-09-14T14:43:01.000Z</time>
      </trkpt>
      <trkpt lat="44.9161" lon="3.66923">
        <ele>664</ele>
        <time>2025-09-14T14:43:16.000Z</time>
      </trkpt>
      <trkpt lat="44.91586" lon="3.66927">
        <ele>663</ele>
        <time>2025-09-14T14:43:30.000Z</time>
      </trkpt>
      <trkpt lat="44.91563" lon="3.66932">
        <ele>665</ele>
        <time>2025-09-14T14:43:44.000Z</time>
      </trkpt>
      <trkpt lat="44.9154" lon="3.66934">
        <ele>665</ele>
        <time>2025-09-14T14:43:59.000Z</time>
      </trkpt>
      <trkpt lat="44.91516" lon="3.66936">
        <ele>666</ele>
        <time>2025-09-14T14:44:16.000Z</time>
      </trkpt>
      <trkpt lat="44.91493" lon="3.66938">
        <ele>666</ele>
        <time>2025-09-14T14:44:34.000Z</time>
      </trkpt>
      <trkpt lat="44.91483" lon="3.66909">
        <ele>666</ele>
        <time>2025-09-14T14:44:51.000Z</time>
      </trkpt>
      <trkpt lat="44.91481" lon="3.66877">
        <ele>663</ele>
        <time>2025-09-14T14:45:11.000Z</time>
      </trkpt>
    </trkseg>
  </trk>
</gpx>